Fowlerton, Indiana
Current Conditions -  °F | °C
As of 7:15 AM on Friday 24 Oct 2014 (Local Time) from KMZZ Reporting Station
Overcast Overcast  
Wind Chill: 36°   Ceiling: 8000
Heat Index: 40°   Visibility: 7mi
Dew Point: 37°   Wind: 5mph
Humidity: 90%   Direction: 170°S
Pressure: 30.11"   Gusts: NA
Location:  40.41°N, 85.57°W
Report Text: KMZZ 241115Z AUTO 17004KT 7SM OVC080 04/03 A3011 RMK AO2 T00430028
Loading
Personal Weather Stations






























Interactive Weather Map
Tropical Storm Tracking
New forecast layout! Learn more

10-Day Weather Forecast

Advertisements
Track Severe Weather on mobile